sensor_id;sensor_type;location;lat;lon;timestamp;pressure;altitude;pressure_sealevel;temperature;humidity
71938;BME280;59810;48.800;9.086;2023-02-16T00:00:38;98660.06;;;0.47;88.01
71938;BME280;59810;48.800;9.086;2023-02-16T00:03:11;98657.72;;;0.44;88.79
71938;BME280;59810;48.800;9.086;2023-02-16T00:05:37;98650.75;;;0.43;88.99
71938;BME280;59810;48.800;9.086;2023-02-16T00:08:05;98649.19;;;0.32;88.77
71938;BME280;59810;48.800;9.086;2023-02-16T00:10:33;98650.50;;;0.28;88.85
71938;BME280;59810;48.800;9.086;2023-02-16T00:12:59;98658.97;;;0.31;89.67
71938;BME280;59810;48.800;9.086;2023-02-16T00:15:46;98653.28;;;0.18;89.22
71938;BME280;59810;48.800;9.086;2023-02-16T00:18:17;98656.94;;;0.17;88.94
71938;BME280;59810;48.800;9.086;2023-02-16T00:20:42;98662.09;;;0.19;89.38
71938;BME280;59810;48.800;9.086;2023-02-16T00:23:08;98666.41;;;0.20;89.50
71938;BME280;59810;48.800;9.086;2023-02-16T00:25:33;98653.47;;;0.17;89.76
71938;BME280;59810;48.800;9.086;2023-02-16T00:27:59;98648.63;;;0.12;89.62
71938;BME280;59810;48.800;9.086;2023-02-16T00:30:26;98649.47;;;0.13;89.54
71938;BME280;59810;48.800;9.086;2023-02-16T00:32:51;98648.94;;;0.09;89.32
71938;BME280;59810;48.800;9.086;2023-02-16T00:35:22;98654.25;;;0.09;90.13
71938;BME280;59810;48.800;9.086;2023-02-16T00:37:48;98657.06;;;0.08;88.98
71938;BME280;59810;48.800;9.086;2023-02-16T00:40:15;98650.78;;;0.09;89.63
71938;BME280;59810;48.800;9.086;2023-02-16T00:42:41;98648.31;;;0.15;89.52
71938;BME280;59810;48.800;9.086;2023-02-16T00:45:15;98649.63;;;0.11;88.21
71938;BME280;59810;48.800;9.086;2023-02-16T00:47:42;98645.13;;;0.12;88.91
71938;BME280;59810;48.800;9.086;2023-02-16T00:50:17;98648.63;;;0.12;89.39
71938;BME280;59810;48.800;9.086;2023-02-16T00:52:45;98653.44;;;0.09;88.94
71938;BME280;59810;48.800;9.086;2023-02-16T00:55:17;98653.84;;;-0.04;88.96
71938;BME280;59810;48.800;9.086;2023-02-16T00:57:49;98651.34;;;-0.06;89.64
71938;BME280;59810;48.800;9.086;2023-02-16T01:02:45;98652.16;;;-0.05;89.63
71938;BME280;59810;48.800;9.086;2023-02-16T01:05:11;98653.69;;;-0.03;89.91
71938;BME280;59810;48.800;9.086;2023-02-16T01:07:39;98663.78;;;-0.06;89.78
71938;BME280;59810;48.800;9.086;2023-02-16T01:10:23;98660.09;;;-0.13;89.92
71938;BME280;59810;48.800;9.086;2023-02-16T01:13:11;98666.53;;;-0.16;90.28
71938;BME280;59810;48.800;9.086;2023-02-16T01:15:37;98670.03;;;-0.15;89.90
71938;BME280;59810;48.800;9.086;2023-02-16T01:18:03;98666.72;;;-0.17;90.04
71938;BME280;59810;48.800;9.086;2023-02-16T01:20:28;98661.56;;;-0.19;90.32
71938;BME280;59810;48.800;9.086;2023-02-16T01:22:53;98662.38;;;-0.18;90.23
71938;BME280;59810;48.800;9.086;2023-02-16T01:25:19;98666.03;;;-0.19;90.02
71938;BME280;59810;48.800;9.086;2023-02-16T01:27:44;98657.34;;;-0.29;90.41
71938;BME280;59810;48.800;9.086;2023-02-16T01:30:14;98657.03;;;-0.26;90.39
71938;BME280;59810;48.800;9.086;2023-02-16T01:32:41;98647.72;;;-0.30;90.64
71938;BME280;59810;48.800;9.086;2023-02-16T01:35:07;98648.41;;;-0.28;90.87
71938;BME280;59810;48.800;9.086;2023-02-16T01:37:32;98642.88;;;-0.35;90.15
71938;BME280;59810;48.800;9.086;2023-02-16T01:39:57;98642.34;;;-0.39;90.54
71938;BME280;59810;48.800;9.086;2023-02-16T01:42:32;98637.56;;;-0.35;90.64
71938;BME280;59810;48.800;9.086;2023-02-16T01:45:10;98629.44;;;-0.34;90.88
71938;BME280;59810;48.800;9.086;2023-02-16T01:47:44;98632.41;;;-0.37;90.71
71938;BME280;59810;48.800;9.086;2023-02-16T01:52:43;98621.78;;;-0.37;90.82
71938;BME280;59810;48.800;9.086;2023-02-16T01:57:59;98610.88;;;-0.34;91.27
71938;BME280;59810;48.800;9.086;2023-02-16T02:03:26;98621.41;;;-0.24;90.62
71938;BME280;59810;48.800;9.086;2023-02-16T02:06:13;98623.53;;;-0.27;90.23
71938;BME280;59810;48.800;9.086;2023-02-16T02:08:53;98631.66;;;-0.29;90.59
71938;BME280;59810;48.800;9.086;2023-02-16T02:11:29;98632.84;;;-0.23;90.38
71938;BME280;59810;48.800;9.086;2023-02-16T02:14:13;98627.06;;;-0.19;90.04
71938;BME280;59810;48.800;9.086;2023-02-16T02:16:52;98625.41;;;-0.20;89.58
71938;BME280;59810;48.800;9.086;2023-02-16T02:19:19;98610.31;;;-0.19;89.85
71938;BME280;59810;48.800;9.086;2023-02-16T02:36:36;98605.34;;;-0.66;90.51
71938;BME280;59810;48.800;9.086;2023-02-16T02:41:45;98612.72;;;-0.60;91.19
71938;BME280;59810;48.800;9.086;2023-02-16T02:44:36;98601.19;;;-0.69;90.70
71938;BME280;59810;48.800;9.086;2023-02-16T02:47:04;98591.41;;;-0.68;90.75
71938;BME280;59810;48.800;9.086;2023-02-16T02:49:29;98595.22;;;-0.71;90.52
71938;BME280;59810;48.800;9.086;2023-02-16T02:51:55;98593.69;;;-0.73;90.56
71938;BME280;59810;48.800;9.086;2023-02-16T02:54:25;98592.88;;;-0.74;90.24
71938;BME280;59810;48.800;9.086;2023-02-16T02:57:42;98594.38;;;-0.71;90.92
71938;BME280;59810;48.800;9.086;2023-02-16T03:00:34;98600.34;;;-0.69;90.76
71938;BME280;59810;48.800;9.086;2023-02-16T03:03:24;98598.69;;;-0.70;90.01
71938;BME280;59810;48.800;9.086;2023-02-16T03:08:36;98594.06;;;-0.68;90.21
71938;BME280;59810;48.800;9.086;2023-02-16T03:14:04;98584.13;;;-0.66;90.75
71938;BME280;59810;48.800;9.086;2023-02-16T03:16:35;98586.66;;;-0.65;90.63
71938;BME280;59810;48.800;9.086;2023-02-16T03:19:02;98592.63;;;-0.63;90.41
71938;BME280;59810;48.800;9.086;2023-02-16T03:21:47;98587.84;;;-0.59;90.08
71938;BME280;59810;48.800;9.086;2023-02-16T03:24:32;98601.28;;;-0.60;89.88
71938;BME280;59810;48.800;9.086;2023-02-16T03:27:23;98587.53;;;-0.56;90.45
71938;BME280;59810;48.800;9.086;2023-02-16T03:30:09;98584.06;;;-0.56;89.91
71938;BME280;59810;48.800;9.086;2023-02-16T03:32:36;98589.34;;;-0.56;89.92
71938;BME280;59810;48.800;9.086;2023-02-16T03:35:02;98602.47;;;-0.55;90.37
71938;BME280;59810;48.800;9.086;2023-02-16T03:37:27;98599.50;;;-0.52;90.54
71938;BME280;59810;48.800;9.086;2023-02-16T03:39:53;98591.22;;;-0.49;90.58
71938;BME280;59810;48.800;9.086;2023-02-16T03:42:37;98595.38;;;-0.46;89.98
71938;BME280;59810;48.800;9.086;2023-02-16T03:45:02;98593.56;;;-0.46;90.23
71938;BME280;59810;48.800;9.086;2023-02-16T03:47:28;98590.91;;;-0.46;90.53
71938;BME280;59810;48.800;9.086;2023-02-16T03:49:53;98599.53;;;-0.44;90.79
71938;BME280;59810;48.800;9.086;2023-02-16T03:52:21;98603.69;;;-0.41;91.16
71938;BME280;59810;48.800;9.086;2023-02-16T03:54:46;98604.84;;;-0.44;90.83
71938;BME280;59810;48.800;9.086;2023-02-16T03:57:11;98601.19;;;-0.43;90.83
71938;BME280;59810;48.800;9.086;2023-02-16T03:59:41;98598.56;;;-0.43;90.80
71938;BME280;59810;48.800;9.086;2023-02-16T04:02:06;98605.69;;;-0.43;91.19
71938;BME280;59810;48.800;9.086;2023-02-16T04:04:31;98616.59;;;-0.46;90.90
71938;BME280;59810;48.800;9.086;2023-02-16T04:06:59;98612.97;;;-0.45;90.86
71938;BME280;59810;48.800;9.086;2023-02-16T04:09:24;98612.59;;;-0.50;91.58
71938;BME280;59810;48.800;9.086;2023-02-16T04:11:49;98606.47;;;-0.51;91.33
71938;BME280;59810;48.800;9.086;2023-02-16T04:14:33;98616.72;;;-0.56;91.30
71938;BME280;59810;48.800;9.086;2023-02-16T04:16:58;98617.22;;;-0.52;91.27
71938;BME280;59810;48.800;9.086;2023-02-16T04:19:24;98620.03;;;-0.54;91.21
71938;BME280;59810;48.800;9.086;2023-02-16T04:21:49;98610.25;;;-0.53;91.47
71938;BME280;59810;48.800;9.086;2023-02-16T04:24:17;98618.38;;;-0.55;91.25
71938;BME280;59810;48.800;9.086;2023-02-16T04:26:42;98617.03;;;-0.59;91.41
71938;BME280;59810;48.800;9.086;2023-02-16T04:29:12;98609.75;;;-0.57;91.89
71938;BME280;59810;48.800;9.086;2023-02-16T04:31:40;98615.19;;;-0.58;91.40
71938;BME280;59810;48.800;9.086;2023-02-16T04:34:05;98616.34;;;-0.61;90.91
71938;BME280;59810;48.800;9.086;2023-02-16T04:36:33;98611.34;;;-0.64;91.16
71938;BME280;59810;48.800;9.086;2023-02-16T04:38:58;98616.34;;;-0.61;91.60
71938;BME280;59810;48.800;9.086;2023-02-16T04:41:24;98617.34;;;-0.62;91.79
71938;BME280;59810;48.800;9.086;2023-02-16T04:43:50;98619.31;;;-0.64;91.81
71938;BME280;59810;48.800;9.086;2023-02-16T04:46:19;98618.31;;;-0.63;91.79
71938;BME280;59810;48.800;9.086;2023-02-16T04:48:45;98607.88;;;-0.65;91.48
71938;BME280;59810;48.800;9.086;2023-02-16T04:51:11;98614.00;;;-0.64;91.51
71938;BME280;59810;48.800;9.086;2023-02-16T04:53:36;98604.06;;;-0.62;91.83
71938;BME280;59810;48.800;9.086;2023-02-16T04:56:04;98601.13;;;-0.59;91.70
71938;BME280;59810;48.800;9.086;2023-02-16T04:58:33;98612.72;;;-0.60;92.03
71938;BME280;59810;48.800;9.086;2023-02-16T05:00:58;98614.22;;;-0.57;92.58
71938;BME280;59810;48.800;9.086;2023-02-16T05:03:23;98613.38;;;-0.58;92.31
71938;BME280;59810;48.800;9.086;2023-02-16T05:05:48;98617.84;;;-0.58;91.98
71938;BME280;59810;48.800;9.086;2023-02-16T05:08:14;98607.09;;;-0.57;92.20
71938;BME280;59810;48.800;9.086;2023-02-16T05:10:41;98613.06;;;-0.55;92.36
71938;BME280;59810;48.800;9.086;2023-02-16T05:13:06;98612.09;;;-0.54;90.78
71938;BME280;59810;48.800;9.086;2023-02-16T05:15:50;98615.72;;;-0.55;91.03
71938;BME280;59810;48.800;9.086;2023-02-16T05:18:15;98610.41;;;-0.55;91.43
71938;BME280;59810;48.800;9.086;2023-02-16T05:20:40;98615.88;;;-0.56;90.90
71938;BME280;59810;48.800;9.086;2023-02-16T05:23:24;98612.19;;;-0.64;91.12
71938;BME280;59810;48.800;9.086;2023-02-16T05:25:49;98615.28;;;-0.68;90.83
71938;BME280;59810;48.800;9.086;2023-02-16T05:28:15;98617.88;;;-0.76;90.76
71938;BME280;59810;48.800;9.086;2023-02-16T05:30:40;98613.56;;;-0.77;90.74
71938;BME280;59810;48.800;9.086;2023-02-16T05:33:05;98622.66;;;-0.80;91.41
71938;BME280;59810;48.800;9.086;2023-02-16T05:35:32;98631.44;;;-0.79;91.38
71938;BME280;59810;48.800;9.086;2023-02-16T05:37:57;98627.44;;;-0.83;91.56
71938;BME280;59810;48.800;9.086;2023-02-16T05:40:22;98623.94;;;-0.84;91.74
71938;BME280;59810;48.800;9.086;2023-02-16T05:42:52;98621.75;;;-0.88;91.61
71938;BME280;59810;48.800;9.086;2023-02-16T05:45:20;98631.31;;;-0.96;92.29
71938;BME280;59810;48.800;9.086;2023-02-16T05:47:45;98630.63;;;-0.98;92.58
71938;BME280;59810;48.800;9.086;2023-02-16T05:50:10;98636.06;;;-0.99;92.66
71938;BME280;59810;48.800;9.086;2023-02-16T05:52:36;98632.97;;;-0.95;93.72
71938;BME280;59810;48.800;9.086;2023-02-16T05:55:02;98635.94;;;-0.98;92.27
71938;BME280;59810;48.800;9.086;2023-02-16T05:57:27;98636.38;;;-1.02;92.13
71938;BME280;59810;48.800;9.086;2023-02-16T05:59:53;98644.78;;;-1.07;92.07
71938;BME280;59810;48.800;9.086;2023-02-16T06:02:18;98645.59;;;-1.06;92.65
71938;BME280;59810;48.800;9.086;2023-02-16T06:04:43;98646.44;;;-1.06;93.12
71938;BME280;59810;48.800;9.086;2023-02-16T06:07:09;98649.78;;;-1.04;93.26
71938;BME280;59810;48.800;9.086;2023-02-16T06:09:34;98652.13;;;-1.01;93.52
71938;BME280;59810;48.800;9.086;2023-02-16T06:11:59;98650.84;;;-0.97;93.70
71938;BME280;59810;48.800;9.086;2023-02-16T06:14:27;98653.78;;;-1.00;93.37
71938;BME280;59810;48.800;9.086;2023-02-16T06:16:54;98661.16;;;-0.93;92.83
71938;BME280;59810;48.800;9.086;2023-02-16T06:19:21;98657.13;;;-0.98;92.61
71938;BME280;59810;48.800;9.086;2023-02-16T06:21:47;98659.47;;;-0.95;93.08
71938;BME280;59810;48.800;9.086;2023-02-16T06:24:13;98660.47;;;-0.96;93.09
71938;BME280;59810;48.800;9.086;2023-02-16T06:26:41;98659.47;;;-0.95;92.67
71938;BME280;59810;48.800;9.086;2023-02-16T06:29:06;98666.19;;;-1.00;92.70
71938;BME280;59810;48.800;9.086;2023-02-16T06:31:32;98669.31;;;-1.05;92.00
71938;BME280;59810;48.800;9.086;2023-02-16T06:33:57;98657.81;;;-0.96;92.97
71938;BME280;59810;48.800;9.086;2023-02-16T06:36:28;98661.47;;;-0.97;92.36
71938;BME280;59810;48.800;9.086;2023-02-16T06:38:54;98663.16;;;-1.05;91.44
71938;BME280;59810;48.800;9.086;2023-02-16T06:41:19;98661.19;;;-1.03;91.61
71938;BME280;59810;48.800;9.086;2023-02-16T06:44:06;98665.97;;;-1.07;91.47
71938;BME280;59810;48.800;9.086;2023-02-16T06:46:36;98661.72;;;-1.00;92.26
71938;BME280;59810;48.800;9.086;2023-02-16T06:49:01;98666.50;;;-1.03;92.04
71938;BME280;59810;48.800;9.086;2023-02-16T06:51:26;98659.38;;;-1.03;92.56
71938;BME280;59810;48.800;9.086;2023-02-16T06:53:52;98661.31;;;-0.95;92.68
71938;BME280;59810;48.800;9.086;2023-02-16T06:56:17;98666.81;;;-0.88;92.56
71938;BME280;59810;48.800;9.086;2023-02-16T06:58:42;98666.88;;;-0.80;93.40
71938;BME280;59810;48.800;9.086;2023-02-16T07:01:08;98670.75;;;-0.75;92.58
71938;BME280;59810;48.800;9.086;2023-02-16T07:03:33;98666.28;;;-0.74;91.90
71938;BME280;59810;48.800;9.086;2023-02-16T07:05:59;98671.19;;;-0.79;92.66
71938;BME280;59810;48.800;9.086;2023-02-16T07:08:25;98672.94;;;-0.70;92.31
71938;BME280;59810;48.800;9.086;2023-02-16T07:10:52;98663.84;;;-0.68;91.69
71938;BME280;59810;48.800;9.086;2023-02-16T07:13:17;98664.22;;;-0.63;91.78
71938;BME280;59810;48.800;9.086;2023-02-16T07:15:43;98670.91;;;-0.58;91.31
71938;BME280;59810;48.800;9.086;2023-02-16T07:18:08;98663.16;;;-0.52;91.64
71938;BME280;59810;48.800;9.086;2023-02-16T07:20:34;98666.31;;;-0.48;91.50
71938;BME280;59810;48.800;9.086;2023-02-16T07:22:59;98667.88;;;-0.38;91.71
71938;BME280;59810;48.800;9.086;2023-02-16T07:25:24;98670.78;;;-0.31;91.40
71938;BME280;59810;48.800;9.086;2023-02-16T07:27:50;98669.00;;;-0.22;91.60
71938;BME280;59810;48.800;9.086;2023-02-16T07:30:18;98670.72;;;-0.13;90.98
71938;BME280;59810;48.800;9.086;2023-02-16T07:32:46;98667.78;;;-0.02;90.63
71938;BME280;59810;48.800;9.086;2023-02-16T07:35:11;98680.28;;;0.06;90.82
71938;BME280;59810;48.800;9.086;2023-02-16T07:37:37;98671.84;;;0.10;90.70
71938;BME280;59810;48.800;9.086;2023-02-16T07:40:05;98668.56;;;0.16;90.20
71938;BME280;59810;48.800;9.086;2023-02-16T07:42:34;98671.88;;;0.18;89.87
71938;BME280;59810;48.800;9.086;2023-02-16T07:44:59;98679.72;;;0.28;90.09
71938;BME280;59810;48.800;9.086;2023-02-16T07:47:24;98685.09;;;0.36;90.01
71938;BME280;59810;48.800;9.086;2023-02-16T07:49:52;98678.97;;;0.44;90.15
71938;BME280;59810;48.800;9.086;2023-02-16T07:52:17;98681.16;;;0.48;89.49
71938;BME280;59810;48.800;9.086;2023-02-16T07:54:43;98684.00;;;0.55;89.13
71938;BME280;59810;48.800;9.086;2023-02-16T07:57:08;98682.84;;;0.57;88.82
71938;BME280;59810;48.800;9.086;2023-02-16T07:59:34;98692.69;;;0.65;88.81
71938;BME280;59810;48.800;9.086;2023-02-16T08:01:59;98691.22;;;0.71;89.63
71938;BME280;59810;48.800;9.086;2023-02-16T08:04:24;98695.03;;;0.76;89.02
71938;BME280;59810;48.800;9.086;2023-02-16T08:06:52;98692.72;;;0.81;88.61
71938;BME280;59810;48.800;9.086;2023-02-16T08:09:20;98691.75;;;0.90;88.64
71938;BME280;59810;48.800;9.086;2023-02-16T08:11:45;98700.75;;;0.98;88.98
71938;BME280;59810;48.800;9.086;2023-02-16T08:14:10;98709.41;;;1.08;88.90
71938;BME280;59810;48.800;9.086;2023-02-16T08:16:38;98698.94;;;1.14;88.45
71938;BME280;59810;48.800;9.086;2023-02-16T08:19:06;98705.78;;;1.25;87.99
71938;BME280;59810;48.800;9.086;2023-02-16T08:21:36;98703.97;;;1.34;88.25
71938;BME280;59810;48.800;9.086;2023-02-16T08:24:05;98696.81;;;1.42;87.55
71938;BME280;59810;48.800;9.086;2023-02-16T08:26:39;98692.50;;;1.49;87.76
71938;BME280;59810;48.800;9.086;2023-02-16T08:29:06;98702.81;;;1.61;87.41
71938;BME280;59810;48.800;9.086;2023-02-16T08:31:34;98706.47;;;1.68;86.99
71938;BME280;59810;48.800;9.086;2023-02-16T08:34:03;98707.47;;;1.75;86.95
71938;BME280;59810;48.800;9.086;2023-02-16T08:36:32;98700.56;;;2.29;100.00
71938;BME280;59810;48.800;9.086;2023-02-16T08:39:02;98703.44;;;2.59;100.00
71938;BME280;59810;48.800;9.086;2023-02-16T08:41:33;98701.59;;;2.59;95.10
71938;BME280;59810;48.800;9.086;2023-02-16T08:44:01;98691.47;;;2.63;89.43
71938;BME280;59810;48.800;9.086;2023-02-16T08:46:28;98695.75;;;2.72;86.64
71938;BME280;59810;48.800;9.086;2023-02-16T08:48:56;98696.66;;;2.87;84.57
71938;BME280;59810;48.800;9.086;2023-02-16T08:51:27;98693.69;;;3.13;82.58
71938;BME280;59810;48.800;9.086;2023-02-16T08:53:52;98701.06;;;3.34;80.34
71938;BME280;59810;48.800;9.086;2023-02-16T08:56:18;98688.88;;;3.54;78.63
71938;BME280;59810;48.800;9.086;2023-02-16T08:58:44;98692.25;;;3.71;78.87
71938;BME280;59810;48.800;9.086;2023-02-16T09:01:13;98696.38;;;3.96;77.15
71938;BME280;59810;48.800;9.086;2023-02-16T09:03:43;98693.66;;;4.34;74.47
71938;BME280;59810;48.800;9.086;2023-02-16T09:06:12;98686.81;;;4.46;73.95
71938;BME280;59810;48.800;9.086;2023-02-16T09:08:38;98683.50;;;4.74;73.29
71938;BME280;59810;48.800;9.086;2023-02-16T09:11:12;98693.56;;;5.08;70.45
71938;BME280;59810;48.800;9.086;2023-02-16T09:13:38;98688.09;;;5.16;69.45
71938;BME280;59810;48.800;9.086;2023-02-16T09:16:08;98680.72;;;5.39;68.05
71938;BME280;59810;48.800;9.086;2023-02-16T09:18:36;98692.72;;;5.65;66.61
71938;BME280;59810;48.800;9.086;2023-02-16T09:21:05;98688.31;;;5.78;66.29
71938;BME280;59810;48.800;9.086;2023-02-16T09:23:33;98691.59;;;5.95;65.32
71938;BME280;59810;48.800;9.086;2023-02-16T09:26:01;98695.19;;;6.09;64.93
71938;BME280;59810;48.800;9.086;2023-02-16T09:28:38;98695.94;;;6.24;64.12
71938;BME280;59810;48.800;9.086;2023-02-16T09:31:23;98692.44;;;6.58;62.17
71938;BME280;59810;48.800;9.086;2023-02-16T09:33:59;98692.94;;;6.81;61.65
71938;BME280;59810;48.800;9.086;2023-02-16T09:36:24;98696.13;;;6.98;60.72
71938;BME280;59810;48.800;9.086;2023-02-16T09:38:51;98694.91;;;7.07;60.52
71938;BME280;59810;48.800;9.086;2023-02-16T09:41:35;98691.22;;;7.15;59.17
71938;BME280;59810;48.800;9.086;2023-02-16T09:44:12;98683.81;;;7.24;59.36
71938;BME280;59810;48.800;9.086;2023-02-16T09:46:41;98678.47;;;7.37;58.59
71938;BME280;59810;48.800;9.086;2023-02-16T09:49:21;98676.81;;;7.36;59.42
71938;BME280;59810;48.800;9.086;2023-02-16T09:54:59;98685.13;;;7.74;56.71
71938;BME280;59810;48.800;9.086;2023-02-16T10:00:09;98673.97;;;7.97;55.65
71938;BME280;59810;48.800;9.086;2023-02-16T10:05:43;98674.19;;;8.22;54.63
71938;BME280;59810;48.800;9.086;2023-02-16T10:08:13;98676.44;;;8.31;54.26
71938;BME280;59810;48.800;9.086;2023-02-16T10:13:23;98674.34;;;8.60;53.19
71938;BME280;59810;48.800;9.086;2023-02-16T10:15:53;98677.63;;;8.68;53.10
71938;BME280;59810;48.800;9.086;2023-02-16T10:18:36;98684.41;;;8.78;52.91
71938;BME280;59810;48.800;9.086;2023-02-16T10:21:08;98679.47;;;8.81;52.72
71938;BME280;59810;48.800;9.086;2023-02-16T10:23:44;98680.25;;;8.88;52.69
71938;BME280;59810;48.800;9.086;2023-02-16T10:31:18;98683.31;;;8.98;52.29
71938;BME280;59810;48.800;9.086;2023-02-16T10:36:28;98677.66;;;9.13;52.37
71938;BME280;59810;48.800;9.086;2023-02-16T10:39:35;98679.28;;;9.21;51.54
71938;BME280;59810;48.800;9.086;2023-02-16T10:42:30;98679.03;;;9.29;51.84
71938;BME280;59810;48.800;9.086;2023-02-16T10:47:37;98668.16;;;9.42;51.70
71938;BME280;59810;48.800;9.086;2023-02-16T10:50:04;98666.03;;;9.51;51.49
71938;BME280;59810;48.800;9.086;2023-02-16T10:52:34;98668.47;;;9.59;51.16
71938;BME280;59810;48.800;9.086;2023-02-16T10:55:04;98661.53;;;9.76;49.97
71938;BME280;59810;48.800;9.086;2023-02-16T10:57:31;98666.56;;;10.16;48.80
71938;BME280;59810;48.800;9.086;2023-02-16T11:00:04;98670.09;;;10.16;49.34
71938;BME280;59810;48.800;9.086;2023-02-16T11:02:40;98660.56;;;10.14;48.98
71938;BME280;59810;48.800;9.086;2023-02-16T11:07:54;98659.50;;;10.40;49.27
71938;BME280;59810;48.800;9.086;2023-02-16T11:10:50;98658.31;;;10.72;47.59
71938;BME280;59810;48.800;9.086;2023-02-16T11:13:24;98655.03;;;10.88;46.93
71938;BME280;59810;48.800;9.086;2023-02-16T11:15:54;98653.19;;;11.01;47.26
71938;BME280;59810;48.800;9.086;2023-02-16T11:18:35;98648.50;;;11.26;46.67
71938;BME280;59810;48.800;9.086;2023-02-16T11:21:07;98656.28;;;11.34;46.06
71938;BME280;59810;48.800;9.086;2023-02-16T11:23:38;98642.47;;;11.42;46.44
71938;BME280;59810;48.800;9.086;2023-02-16T11:28:38;98636.78;;;11.74;45.39
71938;BME280;59810;48.800;9.086;2023-02-16T11:34:05;98639.34;;;12.10;44.20
71938;BME280;59810;48.800;9.086;2023-02-16T11:36:36;98639.91;;;12.24;44.17
71938;BME280;59810;48.800;9.086;2023-02-16T11:41:51;98635.78;;;12.45;44.73
71938;BME280;59810;48.800;9.086;2023-02-16T11:46:51;98620.44;;;12.62;42.97
71938;BME280;59810;48.800;9.086;2023-02-16T11:49:33;98626.19;;;12.66;42.92
71938;BME280;59810;48.800;9.086;2023-02-16T11:52:00;98624.06;;;12.80;43.34
71938;BME280;59810;48.800;9.086;2023-02-16T11:54:25;98619.44;;;12.92;43.35
71938;BME280;59810;48.800;9.086;2023-02-16T11:57:06;98618.47;;;12.98;43.48
71938;BME280;59810;48.800;9.086;2023-02-16T11:59:37;98618.91;;;13.06;42.94
71938;BME280;59810;48.800;9.086;2023-02-16T12:07:39;98605.50;;;13.57;41.79
71938;BME280;59810;48.800;9.086;2023-02-16T12:10:21;98607.91;;;13.70;41.48
71938;BME280;59810;48.800;9.086;2023-02-16T12:15:52;98600.81;;;14.02;41.81
71938;BME280;59810;48.800;9.086;2023-02-16T12:18:42;98596.13;;;14.15;41.20
71938;BME280;59810;48.800;9.086;2023-02-16T12:21:20;98592.97;;;14.23;41.11
71938;BME280;59810;48.800;9.086;2023-02-16T12:26:49;98575.75;;;14.34;41.09
71938;BME280;59810;48.800;9.086;2023-02-16T12:37:52;98567.53;;;14.68;42.19
71938;BME280;59810;48.800;9.086;2023-02-16T12:45:54;98557.97;;;14.43;43.45
71938;BME280;59810;48.800;9.086;2023-02-16T12:51:02;98554.59;;;14.36;41.93
71938;BME280;59810;48.800;9.086;2023-02-16T12:53:44;98552.75;;;14.42;41.79
71938;BME280;59810;48.800;9.086;2023-02-16T12:56:19;98555.94;;;14.55;41.87
71938;BME280;59810;48.800;9.086;2023-02-16T12:58:47;98541.03;;;14.58;42.58
71938;BME280;59810;48.800;9.086;2023-02-16T13:01:20;98532.56;;;14.54;42.53
71938;BME280;59810;48.800;9.086;2023-02-16T13:04:03;98525.69;;;14.69;43.36
71938;BME280;59810;48.800;9.086;2023-02-16T13:12:31;98527.78;;;14.88;43.33
71938;BME280;59810;48.800;9.086;2023-02-16T13:17:55;98531.47;;;14.55;43.58
71938;BME280;59810;48.800;9.086;2023-02-16T13:20:22;98535.00;;;14.34;44.08
71938;BME280;59810;48.800;9.086;2023-02-16T13:28:11;98527.38;;;14.53;42.63
71938;BME280;59810;48.800;9.086;2023-02-16T13:34:20;98513.84;;;14.80;41.77
71938;BME280;59810;48.800;9.086;2023-02-16T13:37:06;98525.16;;;14.72;41.85
71938;BME280;59810;48.800;9.086;2023-02-16T13:43:12;98510.88;;;14.59;44.57
71938;BME280;59810;48.800;9.086;2023-02-16T13:45:45;98514.50;;;14.43;44.10
71938;BME280;59810;48.800;9.086;2023-02-16T13:48:25;98518.72;;;14.56;43.64
71938;BME280;59810;48.800;9.086;2023-02-16T13:50:56;98518.09;;;14.49;43.88
71938;BME280;59810;48.800;9.086;2023-02-16T13:53:27;98515.56;;;14.64;44.13
71938;BME280;59810;48.800;9.086;2023-02-16T13:56:18;98513.59;;;14.38;43.64
71938;BME280;59810;48.800;9.086;2023-02-16T13:58:49;98516.56;;;14.58;43.53
71938;BME280;59810;48.800;9.086;2023-02-16T14:01:34;98512.66;;;14.71;43.78
71938;BME280;59810;48.800;9.086;2023-02-16T14:04:05;98512.13;;;14.74;43.88
71938;BME280;59810;48.800;9.086;2023-02-16T14:06:38;98506.41;;;14.70;43.79
71938;BME280;59810;48.800;9.086;2023-02-16T14:22:51;98531.44;;;13.95;46.90
71938;BME280;59810;48.800;9.086;2023-02-16T14:27:50;98527.56;;;13.69;46.97
71938;BME280;59810;48.800;9.086;2023-02-16T14:38:26;98542.34;;;13.45;47.77
71938;BME280;59810;48.800;9.086;2023-02-16T14:40:55;98534.13;;;13.39;48.63
71938;BME280;59810;48.800;9.086;2023-02-16T14:57:34;98537.06;;;13.21;43.90
71938;BME280;59810;48.800;9.086;2023-02-16T15:02:58;98538.66;;;13.05;44.20
71938;BME280;59810;48.800;9.086;2023-02-16T15:05:31;98533.03;;;12.95;44.84
71938;BME280;59810;48.800;9.086;2023-02-16T15:10:33;98528.63;;;12.77;44.69
71938;BME280;59810;48.800;9.086;2023-02-16T15:12:58;98529.59;;;12.71;44.52
71938;BME280;59810;48.800;9.086;2023-02-16T15:15:44;98525.72;;;12.67;44.57
71938;BME280;59810;48.800;9.086;2023-02-16T15:18:18;98524.22;;;12.60;44.75
71938;BME280;59810;48.800;9.086;2023-02-16T15:20:47;98519.28;;;12.57;44.65
71938;BME280;59810;48.800;9.086;2023-02-16T15:23:18;98518.34;;;12.51;44.83
71938;BME280;59810;48.800;9.086;2023-02-16T15:25:58;98506.94;;;12.49;45.16
71938;BME280;59810;48.800;9.086;2023-02-16T15:28:28;98512.25;;;12.44;45.38
71938;BME280;59810;48.800;9.086;2023-02-16T15:31:36;98503.47;;;12.37;46.01
71938;BME280;59810;48.800;9.086;2023-02-16T15:34:06;98496.84;;;12.33;47.03
71938;BME280;59810;48.800;9.086;2023-02-16T15:36:37;98490.28;;;12.29;46.22
71938;BME280;59810;48.800;9.086;2023-02-16T15:39:08;98502.06;;;12.23;47.13
71938;BME280;59810;48.800;9.086;2023-02-16T15:41:39;98492.19;;;12.17;46.27
71938;BME280;59810;48.800;9.086;2023-02-16T15:44:11;98499.75;;;12.14;46.43
71938;BME280;59810;48.800;9.086;2023-02-16T15:46:40;98509.41;;;12.10;48.98
71938;BME280;59810;48.800;9.086;2023-02-16T15:51:47;98508.22;;;12.06;46.43
71938;BME280;59810;48.800;9.086;2023-02-16T15:54:23;98500.78;;;12.02;46.58
71938;BME280;59810;48.800;9.086;2023-02-16T15:56:50;98501.41;;;11.92;47.20
71938;BME280;59810;48.800;9.086;2023-02-16T16:02:10;98489.63;;;11.75;48.06
71938;BME280;59810;48.800;9.086;2023-02-16T16:04:43;98495.53;;;11.72;48.56
71938;BME280;59810;48.800;9.086;2023-02-16T16:07:27;98499.16;;;11.66;48.25